sensor_id;sensor_type;location;lat;lon;timestamp;P1;durP1;ratioP1;P2;durP2;ratioP2
9970;SDS011;5026;51.494;11.974;2022-11-15T00:01:40;25.57;;;12.50;;
9970;SDS011;5026;51.494;11.974;2022-11-15T00:04:07;21.27;;;11.33;;
9970;SDS011;5026;51.494;11.974;2022-11-15T00:06:36;23.47;;;11.93;;
9970;SDS011;5026;51.494;11.974;2022-11-15T00:09:03;23.23;;;12.43;;
9970;SDS011;5026;51.494;11.974;2022-11-15T00:11:30;22.57;;;12.37;;
9970;SDS011;5026;51.494;11.974;2022-11-15T00:13:58;27.03;;;12.83;;
9970;SDS011;5026;51.494;11.974;2022-11-15T00:16:27;22.67;;;11.47;;
9970;SDS011;5026;51.494;11.974;2022-11-15T00:18:54;19.43;;;10.67;;
9970;SDS011;5026;51.494;11.974;2022-11-15T00:21:22;20.03;;;11.27;;
9970;SDS011;5026;51.494;11.974;2022-11-15T00:23:50;23.53;;;10.40;;
9970;SDS011;5026;51.494;11.974;2022-11-15T00:26:18;23.43;;;12.13;;
9970;SDS011;5026;51.494;11.974;2022-11-15T00:28:45;23.60;;;11.80;;
9970;SDS011;5026;51.494;11.974;2022-11-15T00:31:13;20.70;;;11.40;;
9970;SDS011;5026;51.494;11.974;2022-11-15T00:33:42;18.60;;;11.27;;
9970;SDS011;5026;51.494;11.974;2022-11-15T00:36:09;20.87;;;12.07;;
9970;SDS011;5026;51.494;11.974;2022-11-15T00:38:37;18.97;;;11.00;;
9970;SDS011;5026;51.494;11.974;2022-11-15T00:41:06;18.10;;;9.50;;
9970;SDS011;5026;51.494;11.974;2022-11-15T00:43:34;21.57;;;12.07;;
9970;SDS011;5026;51.494;11.974;2022-11-15T00:46:01;20.23;;;10.90;;
9970;SDS011;5026;51.494;11.974;2022-11-15T00:48:28;17.83;;;10.80;;
9970;SDS011;5026;51.494;11.974;2022-11-15T00:50:56;21.10;;;11.20;;
9970;SDS011;5026;51.494;11.974;2022-11-15T00:53:23;21.77;;;11.60;;
9970;SDS011;5026;51.494;11.974;2022-11-15T00:55:51;20.63;;;11.43;;
9970;SDS011;5026;51.494;11.974;2022-11-15T00:58:19;24.37;;;11.93;;
9970;SDS011;5026;51.494;11.974;2022-11-15T01:00:46;17.33;;;10.13;;
9970;SDS011;5026;51.494;11.974;2022-11-15T01:03:13;17.90;;;11.40;;
9970;SDS011;5026;51.494;11.974;2022-11-15T01:05:41;19.87;;;10.77;;
9970;SDS011;5026;51.494;11.974;2022-11-15T01:08:11;20.90;;;11.87;;
9970;SDS011;5026;51.494;11.974;2022-11-15T01:10:38;19.83;;;11.23;;
9970;SDS011;5026;51.494;11.974;2022-11-15T01:13:07;21.00;;;11.77;;
9970;SDS011;5026;51.494;11.974;2022-11-15T01:15:38;19.77;;;11.33;;
9970;SDS011;5026;51.494;11.974;2022-11-15T01:18:05;18.27;;;11.07;;
9970;SDS011;5026;51.494;11.974;2022-11-15T01:20:32;20.50;;;10.73;;
9970;SDS011;5026;51.494;11.974;2022-11-15T01:22:59;19.73;;;9.30;;
9970;SDS011;5026;51.494;11.974;2022-11-15T01:25:27;22.63;;;11.57;;
9970;SDS011;5026;51.494;11.974;2022-11-15T01:27:54;21.57;;;10.97;;
9970;SDS011;5026;51.494;11.974;2022-11-15T01:30:21;23.70;;;12.43;;
9970;SDS011;5026;51.494;11.974;2022-11-15T01:32:50;21.43;;;10.93;;
9970;SDS011;5026;51.494;11.974;2022-11-15T01:35:17;24.93;;;12.03;;
9970;SDS011;5026;51.494;11.974;2022-11-15T01:37:45;19.67;;;10.57;;
9970;SDS011;5026;51.494;11.974;2022-11-15T01:40:12;24.23;;;12.40;;
9970;SDS011;5026;51.494;11.974;2022-11-15T01:42:39;21.77;;;11.63;;
9970;SDS011;5026;51.494;11.974;2022-11-15T01:45:07;26.03;;;11.80;;
9970;SDS011;5026;51.494;11.974;2022-11-15T01:47:39;22.20;;;10.87;;
9970;SDS011;5026;51.494;11.974;2022-11-15T01:50:09;21.07;;;10.77;;
9970;SDS011;5026;51.494;11.974;2022-11-15T01:52:37;22.53;;;11.57;;
9970;SDS011;5026;51.494;11.974;2022-11-15T01:55:07;18.73;;;10.70;;
9970;SDS011;5026;51.494;11.974;2022-11-15T01:57:35;22.93;;;10.17;;
9970;SDS011;5026;51.494;11.974;2022-11-15T02:00:03;17.17;;;10.50;;
9970;SDS011;5026;51.494;11.974;2022-11-15T02:02:31;17.37;;;10.40;;
9970;SDS011;5026;51.494;11.974;2022-11-15T02:04:59;19.50;;;10.87;;
9970;SDS011;5026;51.494;11.974;2022-11-15T02:07:27;22.80;;;11.00;;
9970;SDS011;5026;51.494;11.974;2022-11-15T02:09:55;22.77;;;12.03;;
9970;SDS011;5026;51.494;11.974;2022-11-15T02:12:25;18.93;;;10.70;;
9970;SDS011;5026;51.494;11.974;2022-11-15T02:14:52;22.83;;;10.77;;
9970;SDS011;5026;51.494;11.974;2022-11-15T02:17:30;21.87;;;10.93;;
9970;SDS011;5026;51.494;11.974;2022-11-15T02:20:14;19.57;;;10.83;;
9970;SDS011;5026;51.494;11.974;2022-11-15T02:22:56;22.40;;;10.30;;
9970;SDS011;5026;51.494;11.974;2022-11-15T02:25:35;17.33;;;10.03;;
9970;SDS011;5026;51.494;11.974;2022-11-15T02:28:16;20.13;;;10.83;;
9970;SDS011;5026;51.494;11.974;2022-11-15T02:30:49;16.40;;;10.03;;
9970;SDS011;5026;51.494;11.974;2022-11-15T02:33:22;21.23;;;11.17;;
9970;SDS011;5026;51.494;11.974;2022-11-15T02:35:57;19.27;;;10.47;;
9970;SDS011;5026;51.494;11.974;2022-11-15T02:38:27;19.47;;;11.00;;
9970;SDS011;5026;51.494;11.974;2022-11-15T02:40:57;20.20;;;10.40;;
9970;SDS011;5026;51.494;11.974;2022-11-15T02:43:27;19.53;;;11.57;;
9970;SDS011;5026;51.494;11.974;2022-11-15T02:46:14;22.10;;;11.60;;
9970;SDS011;5026;51.494;11.974;2022-11-15T02:48:43;21.73;;;11.00;;
9970;SDS011;5026;51.494;11.974;2022-11-15T02:51:10;24.50;;;12.40;;
9970;SDS011;5026;51.494;11.974;2022-11-15T02:53:38;22.17;;;11.00;;
9970;SDS011;5026;51.494;11.974;2022-11-15T02:56:07;20.93;;;10.37;;
9970;SDS011;5026;51.494;11.974;2022-11-15T02:58:39;20.60;;;10.13;;
9970;SDS011;5026;51.494;11.974;2022-11-15T03:01:11;22.30;;;11.97;;
9970;SDS011;5026;51.494;11.974;2022-11-15T03:03:44;19.97;;;9.53;;
9970;SDS011;5026;51.494;11.974;2022-11-15T03:06:15;28.17;;;12.63;;
9970;SDS011;5026;51.494;11.974;2022-11-15T03:08:45;22.70;;;10.60;;
9970;SDS011;5026;51.494;11.974;2022-11-15T03:11:16;26.00;;;12.87;;
9970;SDS011;5026;51.494;11.974;2022-11-15T03:13:46;25.03;;;11.30;;
9970;SDS011;5026;51.494;11.974;2022-11-15T03:16:18;19.10;;;11.00;;
9970;SDS011;5026;51.494;11.974;2022-11-15T03:18:49;19.03;;;10.63;;
9970;SDS011;5026;51.494;11.974;2022-11-15T03:21:19;21.47;;;11.30;;
9970;SDS011;5026;51.494;11.974;2022-11-15T03:23:48;21.77;;;11.00;;
9970;SDS011;5026;51.494;11.974;2022-11-15T03:26:17;22.10;;;11.10;;
9970;SDS011;5026;51.494;11.974;2022-11-15T03:28:47;22.67;;;11.67;;
9970;SDS011;5026;51.494;11.974;2022-11-15T03:31:16;19.20;;;10.23;;
9970;SDS011;5026;51.494;11.974;2022-11-15T03:34:05;19.80;;;10.33;;
9970;SDS011;5026;51.494;11.974;2022-11-15T03:36:33;18.13;;;10.07;;
9970;SDS011;5026;51.494;11.974;2022-11-15T03:39:02;20.33;;;10.77;;
9970;SDS011;5026;51.494;11.974;2022-11-15T03:41:33;17.10;;;10.73;;
9970;SDS011;5026;51.494;11.974;2022-11-15T03:44:04;20.47;;;10.57;;
9970;SDS011;5026;51.494;11.974;2022-11-15T03:46:32;20.50;;;11.50;;
9970;SDS011;5026;51.494;11.974;2022-11-15T03:49:03;19.77;;;11.60;;
9970;SDS011;5026;51.494;11.974;2022-11-15T03:51:32;20.90;;;11.50;;
9970;SDS011;5026;51.494;11.974;2022-11-15T03:54:01;19.87;;;10.47;;
9970;SDS011;5026;51.494;11.974;2022-11-15T03:56:29;19.53;;;10.27;;
9970;SDS011;5026;51.494;11.974;2022-11-15T03:58:56;22.93;;;11.93;;
9970;SDS011;5026;51.494;11.974;2022-11-15T04:01:23;24.10;;;11.40;;
9970;SDS011;5026;51.494;11.974;2022-11-15T04:03:50;20.93;;;10.63;;
9970;SDS011;5026;51.494;11.974;2022-11-15T04:06:17;23.70;;;11.50;;
9970;SDS011;5026;51.494;11.974;2022-11-15T04:08:46;22.27;;;11.30;;
9970;SDS011;5026;51.494;11.974;2022-11-15T04:11:13;21.33;;;12.43;;
9970;SDS011;5026;51.494;11.974;2022-11-15T04:13:40;15.87;;;9.53;;
9970;SDS011;5026;51.494;11.974;2022-11-15T04:16:07;18.97;;;10.40;;
9970;SDS011;5026;51.494;11.974;2022-11-15T04:18:34;24.00;;;11.23;;
9970;SDS011;5026;51.494;11.974;2022-11-15T04:21:01;20.87;;;10.30;;
9970;SDS011;5026;51.494;11.974;2022-11-15T04:23:48;19.57;;;11.03;;
9970;SDS011;5026;51.494;11.974;2022-11-15T04:26:32;22.63;;;11.37;;
9970;SDS011;5026;51.494;11.974;2022-11-15T04:29:00;20.87;;;10.53;;
9970;SDS011;5026;51.494;11.974;2022-11-15T04:31:44;23.63;;;12.23;;
9970;SDS011;5026;51.494;11.974;2022-11-15T04:34:11;25.30;;;12.10;;
9970;SDS011;5026;51.494;11.974;2022-11-15T04:36:39;27.70;;;13.37;;
9970;SDS011;5026;51.494;11.974;2022-11-15T04:39:25;26.83;;;12.40;;
9970;SDS011;5026;51.494;11.974;2022-11-15T04:41:52;20.70;;;10.93;;
9970;SDS011;5026;51.494;11.974;2022-11-15T04:44:21;24.53;;;11.70;;
9970;SDS011;5026;51.494;11.974;2022-11-15T04:46:48;28.50;;;13.30;;
9970;SDS011;5026;51.494;11.974;2022-11-15T04:49:15;20.07;;;11.37;;
9970;SDS011;5026;51.494;11.974;2022-11-15T04:51:42;22.90;;;12.13;;
9970;SDS011;5026;51.494;11.974;2022-11-15T04:54:09;25.30;;;12.70;;
9970;SDS011;5026;51.494;11.974;2022-11-15T04:56:38;25.13;;;11.73;;
9970;SDS011;5026;51.494;11.974;2022-11-15T04:59:05;21.10;;;10.30;;
9970;SDS011;5026;51.494;11.974;2022-11-15T05:01:32;20.80;;;10.57;;
9970;SDS011;5026;51.494;11.974;2022-11-15T05:03:59;21.03;;;9.97;;
9970;SDS011;5026;51.494;11.974;2022-11-15T05:06:44;23.90;;;11.80;;
9970;SDS011;5026;51.494;11.974;2022-11-15T05:09:11;21.63;;;11.10;;
9970;SDS011;5026;51.494;11.974;2022-11-15T05:11:40;19.80;;;11.00;;
9970;SDS011;5026;51.494;11.974;2022-11-15T05:14:09;22.67;;;12.27;;
9970;SDS011;5026;51.494;11.974;2022-11-15T05:16:37;20.57;;;10.73;;
9970;SDS011;5026;51.494;11.974;2022-11-15T05:19:04;22.73;;;11.83;;
9970;SDS011;5026;51.494;11.974;2022-11-15T05:21:31;21.73;;;11.27;;
9970;SDS011;5026;51.494;11.974;2022-11-15T05:23:59;20.53;;;11.43;;
9970;SDS011;5026;51.494;11.974;2022-11-15T05:26:26;19.53;;;10.63;;
9970;SDS011;5026;51.494;11.974;2022-11-15T05:28:55;24.60;;;11.23;;
9970;SDS011;5026;51.494;11.974;2022-11-15T05:31:22;25.83;;;11.13;;
9970;SDS011;5026;51.494;11.974;2022-11-15T05:33:50;24.97;;;12.27;;
9970;SDS011;5026;51.494;11.974;2022-11-15T05:36:18;21.77;;;11.07;;
9970;SDS011;5026;51.494;11.974;2022-11-15T05:38:47;21.97;;;12.27;;
9970;SDS011;5026;51.494;11.974;2022-11-15T05:41:14;20.73;;;11.33;;
9970;SDS011;5026;51.494;11.974;2022-11-15T05:43:42;22.63;;;10.67;;
9970;SDS011;5026;51.494;11.974;2022-11-15T05:46:11;23.23;;;11.87;;
9970;SDS011;5026;51.494;11.974;2022-11-15T05:48:39;17.90;;;9.77;;
9970;SDS011;5026;51.494;11.974;2022-11-15T05:51:08;21.77;;;10.83;;
9970;SDS011;5026;51.494;11.974;2022-11-15T05:53:35;20.73;;;9.90;;
9970;SDS011;5026;51.494;11.974;2022-11-15T05:56:03;20.10;;;10.73;;
9970;SDS011;5026;51.494;11.974;2022-11-15T05:58:34;23.02;;;12.80;;
9970;SDS011;5026;51.494;11.974;2022-11-15T06:01:01;20.50;;;10.37;;
9970;SDS011;5026;51.494;11.974;2022-11-15T06:03:30;24.13;;;11.47;;
9970;SDS011;5026;51.494;11.974;2022-11-15T06:05:57;19.30;;;11.23;;
9970;SDS011;5026;51.494;11.974;2022-11-15T06:08:24;22.33;;;11.13;;
9970;SDS011;5026;51.494;11.974;2022-11-15T06:10:51;21.77;;;10.17;;
9970;SDS011;5026;51.494;11.974;2022-11-15T06:13:18;22.63;;;11.57;;
9970;SDS011;5026;51.494;11.974;2022-11-15T06:15:45;20.00;;;10.53;;
9970;SDS011;5026;51.494;11.974;2022-11-15T06:18:12;20.30;;;9.80;;
9970;SDS011;5026;51.494;11.974;2022-11-15T06:20:41;17.40;;;9.07;;
9970;SDS011;5026;51.494;11.974;2022-11-15T06:23:08;19.90;;;10.23;;
9970;SDS011;5026;51.494;11.974;2022-11-15T06:25:35;19.37;;;9.83;;
9970;SDS011;5026;51.494;11.974;2022-11-15T06:28:02;20.77;;;9.80;;
9970;SDS011;5026;51.494;11.974;2022-11-15T06:30:30;20.37;;;9.77;;
9970;SDS011;5026;51.494;11.974;2022-11-15T06:33:00;14.83;;;9.50;;
9970;SDS011;5026;51.494;11.974;2022-11-15T06:35:27;17.50;;;9.90;;
9970;SDS011;5026;51.494;11.974;2022-11-15T06:37:56;17.67;;;8.27;;
9970;SDS011;5026;51.494;11.974;2022-11-15T06:40:23;22.93;;;10.83;;
9970;SDS011;5026;51.494;11.974;2022-11-15T06:42:50;19.37;;;10.10;;
9970;SDS011;5026;51.494;11.974;2022-11-15T06:45:17;22.13;;;11.37;;
9970;SDS011;5026;51.494;11.974;2022-11-15T06:47:44;19.83;;;10.03;;
9970;SDS011;5026;51.494;11.974;2022-11-15T06:50:12;19.17;;;10.33;;
9970;SDS011;5026;51.494;11.974;2022-11-15T06:52:39;17.80;;;9.57;;
9970;SDS011;5026;51.494;11.974;2022-11-15T06:55:08;18.60;;;9.87;;
9970;SDS011;5026;51.494;11.974;2022-11-15T06:57:36;14.47;;;8.27;;
9970;SDS011;5026;51.494;11.974;2022-11-15T07:00:03;16.97;;;9.67;;
9970;SDS011;5026;51.494;11.974;2022-11-15T07:02:31;18.50;;;8.97;;
9970;SDS011;5026;51.494;11.974;2022-11-15T07:04:58;16.17;;;8.73;;
9970;SDS011;5026;51.494;11.974;2022-11-15T07:07:25;16.20;;;9.13;;
9970;SDS011;5026;51.494;11.974;2022-11-15T07:09:52;14.37;;;8.37;;
9970;SDS011;5026;51.494;11.974;2022-11-15T07:12:21;19.80;;;9.77;;
9970;SDS011;5026;51.494;11.974;2022-11-15T07:14:48;17.83;;;8.57;;
9970;SDS011;5026;51.494;11.974;2022-11-15T07:17:15;18.13;;;9.10;;
9970;SDS011;5026;51.494;11.974;2022-11-15T07:19:42;15.43;;;8.03;;
9970;SDS011;5026;51.494;11.974;2022-11-15T07:22:09;17.63;;;8.97;;
9970;SDS011;5026;51.494;11.974;2022-11-15T07:24:36;16.90;;;8.73;;
9970;SDS011;5026;51.494;11.974;2022-11-15T07:27:03;15.47;;;8.77;;
9970;SDS011;5026;51.494;11.974;2022-11-15T07:29:32;16.33;;;9.03;;
9970;SDS011;5026;51.494;11.974;2022-11-15T07:31:59;18.63;;;8.60;;
9970;SDS011;5026;51.494;11.974;2022-11-15T07:34:26;19.23;;;8.80;;
9970;SDS011;5026;51.494;11.974;2022-11-15T07:36:53;16.53;;;8.57;;
9970;SDS011;5026;51.494;11.974;2022-11-15T07:39:20;18.30;;;9.57;;
9970;SDS011;5026;51.494;11.974;2022-11-15T07:41:47;21.40;;;9.57;;
9970;SDS011;5026;51.494;11.974;2022-11-15T07:44:36;16.73;;;9.53;;
9970;SDS011;5026;51.494;11.974;2022-11-15T07:47:03;17.00;;;8.60;;
9970;SDS011;5026;51.494;11.974;2022-11-15T07:49:30;17.30;;;9.10;;
9970;SDS011;5026;51.494;11.974;2022-11-15T07:51:57;20.07;;;8.73;;
9970;SDS011;5026;51.494;11.974;2022-11-15T07:54:25;15.50;;;9.50;;
9970;SDS011;5026;51.494;11.974;2022-11-15T07:56:52;15.00;;;8.07;;
9970;SDS011;5026;51.494;11.974;2022-11-15T07:59:19;18.10;;;9.60;;
9970;SDS011;5026;51.494;11.974;2022-11-15T08:01:47;16.80;;;9.00;;
9970;SDS011;5026;51.494;11.974;2022-11-15T08:04:15;21.00;;;9.53;;
9970;SDS011;5026;51.494;11.974;2022-11-15T08:06:42;15.80;;;7.80;;
9970;SDS011;5026;51.494;11.974;2022-11-15T08:09:09;14.73;;;8.25;;
9970;SDS011;5026;51.494;11.974;2022-11-15T08:11:36;10.65;;;7.47;;
9970;SDS011;5026;51.494;11.974;2022-11-15T08:14:03;16.35;;;7.65;;
9970;SDS011;5026;51.494;11.974;2022-11-15T08:16:31;12.80;;;7.10;;
9970;SDS011;5026;51.494;11.974;2022-11-15T08:18:59;11.68;;;6.82;;
9970;SDS011;5026;51.494;11.974;2022-11-15T08:21:26;14.10;;;8.55;;
9970;SDS011;5026;51.494;11.974;2022-11-15T08:23:53;10.25;;;7.20;;
9970;SDS011;5026;51.494;11.974;2022-11-15T08:26:21;11.85;;;8.00;;
9970;SDS011;5026;51.494;11.974;2022-11-15T08:28:49;13.85;;;7.90;;
9970;SDS011;5026;51.494;11.974;2022-11-15T08:31:17;10.15;;;7.70;;
9970;SDS011;5026;51.494;11.974;2022-11-15T08:33:44;14.45;;;8.02;;
9970;SDS011;5026;51.494;11.974;2022-11-15T08:36:14;10.90;;;7.45;;
9970;SDS011;5026;51.494;11.974;2022-11-15T08:38:42;11.93;;;6.80;;
9970;SDS011;5026;51.494;11.974;2022-11-15T08:41:14;14.82;;;8.52;;
9970;SDS011;5026;51.494;11.974;2022-11-15T08:43:43;13.20;;;7.97;;
9970;SDS011;5026;51.494;11.974;2022-11-15T08:46:11;14.05;;;8.73;;
9970;SDS011;5026;51.494;11.974;2022-11-15T08:48:39;13.85;;;8.20;;
9970;SDS011;5026;51.494;11.974;2022-11-15T08:51:06;12.20;;;8.25;;
9970;SDS011;5026;51.494;11.974;2022-11-15T08:53:34;15.95;;;9.18;;
9970;SDS011;5026;51.494;11.974;2022-11-15T08:56:02;19.27;;;8.68;;
9970;SDS011;5026;51.494;11.974;2022-11-15T08:58:29;12.40;;;8.27;;
9970;SDS011;5026;51.494;11.974;2022-11-15T09:00:57;15.55;;;9.75;;
9970;SDS011;5026;51.494;11.974;2022-11-15T09:03:24;16.33;;;8.30;;
9970;SDS011;5026;51.494;11.974;2022-11-15T09:05:53;21.33;;;9.05;;
9970;SDS011;5026;51.494;11.974;2022-11-15T09:08:21;25.50;;;9.70;;
9970;SDS011;5026;51.494;11.974;2022-11-15T09:10:49;19.77;;;9.18;;
9970;SDS011;5026;51.494;11.974;2022-11-15T09:13:16;30.42;;;11.63;;
9970;SDS011;5026;51.494;11.974;2022-11-15T09:15:43;21.38;;;10.13;;
9970;SDS011;5026;51.494;11.974;2022-11-15T09:18:11;25.48;;;10.13;;
9970;SDS011;5026;51.494;11.974;2022-11-15T09:20:38;19.05;;;8.90;;
9970;SDS011;5026;51.494;11.974;2022-11-15T09:23:05;19.65;;;8.65;;
9970;SDS011;5026;51.494;11.974;2022-11-15T09:25:32;20.10;;;8.60;;
9970;SDS011;5026;51.494;11.974;2022-11-15T09:28:03;18.40;;;8.48;;
9970;SDS011;5026;51.494;11.974;2022-11-15T09:30:32;18.88;;;8.43;;
9970;SDS011;5026;51.494;11.974;2022-11-15T09:33:05;19.25;;;7.93;;
9970;SDS011;5026;51.494;11.974;2022-11-15T09:35:32;16.17;;;7.38;;
9970;SDS011;5026;51.494;11.974;2022-11-15T09:38:00;17.73;;;7.95;;
9970;SDS011;5026;51.494;11.974;2022-11-15T09:40:27;15.55;;;7.90;;
9970;SDS011;5026;51.494;11.974;2022-11-15T09:45:40;16.88;;;7.20;;
9970;SDS011;5026;51.494;11.974;2022-11-15T09:48:19;23.15;;;8.45;;
9970;SDS011;5026;51.494;11.974;2022-11-15T09:50:48;18.15;;;7.88;;
9970;SDS011;5026;51.494;11.974;2022-11-15T09:53:24;29.00;;;9.50;;
9970;SDS011;5026;51.494;11.974;2022-11-15T09:55:54;16.92;;;7.40;;
9970;SDS011;5026;51.494;11.974;2022-11-15T09:58:24;24.42;;;8.10;;
9970;SDS011;5026;51.494;11.974;2022-11-15T10:00:54;16.55;;;7.20;;
9970;SDS011;5026;51.494;11.974;2022-11-15T10:03:25;26.48;;;8.35;;
9970;SDS011;5026;51.494;11.974;2022-11-15T10:05:54;20.15;;;7.70;;
9970;SDS011;5026;51.494;11.974;2022-11-15T10:08:25;20.27;;;7.00;;
9970;SDS011;5026;51.494;11.974;2022-11-15T10:10:55;16.03;;;6.83;;
9970;SDS011;5026;51.494;11.974;2022-11-15T10:13:23;26.35;;;8.48;;
9970;SDS011;5026;51.494;11.974;2022-11-15T10:15:51;15.07;;;6.43;;
9970;SDS011;5026;51.494;11.974;2022-11-15T10:18:22;26.35;;;7.85;;
9970;SDS011;5026;51.494;11.974;2022-11-15T10:20:55;14.53;;;6.40;;
9970;SDS011;5026;51.494;11.974;2022-11-15T10:23:24;28.67;;;8.10;;
9970;SDS011;5026;51.494;11.974;2022-11-15T10:25:51;14.03;;;6.70;;
9970;SDS011;5026;51.494;11.974;2022-11-15T10:28:21;22.50;;;7.77;;
9970;SDS011;5026;51.494;11.974;2022-11-15T10:30:49;16.47;;;6.83;;
9970;SDS011;5026;51.494;11.974;2022-11-15T10:33:19;28.25;;;8.50;;
9970;SDS011;5026;51.494;11.974;2022-11-15T10:35:51;18.38;;;6.38;;
9970;SDS011;5026;51.494;11.974;2022-11-15T10:38:48;18.10;;;6.53;;
9970;SDS011;5026;51.494;11.974;2022-11-15T10:41:19;22.80;;;7.72;;
9970;SDS011;5026;51.494;11.974;2022-11-15T10:43:46;13.00;;;5.93;;
9970;SDS011;5026;51.494;11.974;2022-11-15T10:46:27;13.50;;;5.20;;
9970;SDS011;5026;51.494;11.974;2022-11-15T10:48:56;12.90;;;5.03;;
9970;SDS011;5026;51.494;11.974;2022-11-15T10:51:41;9.70;;;5.28;;
9970;SDS011;5026;51.494;11.974;2022-11-15T10:54:09;16.20;;;6.22;;
9970;SDS011;5026;51.494;11.974;2022-11-15T10:56:38;15.02;;;5.07;;
9970;SDS011;5026;51.494;11.974;2022-11-15T10:59:07;14.77;;;5.93;;
9970;SDS011;5026;51.494;11.974;2022-11-15T11:01:45;14.65;;;6.20;;
9970;SDS011;5026;51.494;11.974;2022-11-15T11:04:13;19.10;;;6.22;;
9970;SDS011;5026;51.494;11.974;2022-11-15T11:06:47;13.48;;;5.03;;
9970;SDS011;5026;51.494;11.974;2022-11-15T11:09:21;20.70;;;5.78;;
9970;SDS011;5026;51.494;11.974;2022-11-15T11:11:49;11.63;;;4.80;;
9970;SDS011;5026;51.494;11.974;2022-11-15T11:14:19;30.17;;;6.75;;
9970;SDS011;5026;51.494;11.974;2022-11-15T11:16:48;14.38;;;5.40;;
9970;SDS011;5026;51.494;11.974;2022-11-15T11:22:09;10.73;;;5.18;;
9970;SDS011;5026;51.494;11.974;2022-11-15T11:24:40;11.18;;;4.97;;
9970;SDS011;5026;51.494;11.974;2022-11-15T11:27:12;16.50;;;5.60;;
9970;SDS011;5026;51.494;11.974;2022-11-15T11:29:45;9.95;;;4.22;;
9970;SDS011;5026;51.494;11.974;2022-11-15T11:32:23;23.67;;;6.40;;
9970;SDS011;5026;51.494;11.974;2022-11-15T11:34:55;15.50;;;5.32;;
9970;SDS011;5026;51.494;11.974;2022-11-15T11:37:28;20.95;;;6.25;;
9970;SDS011;5026;51.494;11.974;2022-11-15T11:40:01;12.07;;;4.38;;
9970;SDS011;5026;51.494;11.974;2022-11-15T11:42:34;16.52;;;5.00;;
9970;SDS011;5026;51.494;11.974;2022-11-15T11:45:05;12.02;;;4.53;;
9970;SDS011;5026;51.494;11.974;2022-11-15T11:47:35;18.05;;;5.15;;
9970;SDS011;5026;51.494;11.974;2022-11-15T11:50:10;13.68;;;4.78;;
9970;SDS011;5026;51.494;11.974;2022-11-15T11:52:40;9.52;;;4.35;;
9970;SDS011;5026;51.494;11.974;2022-11-15T11:55:12;9.43;;;4.30;;
9970;SDS011;5026;51.494;11.974;2022-11-15T11:57:43;12.68;;;4.95;;
9970;SDS011;5026;51.494;11.974;2022-11-15T12:00:15;16.38;;;5.07;;
9970;SDS011;5026;51.494;11.974;2022-11-15T12:02:45;13.43;;;4.35;;
9970;SDS011;5026;51.494;11.974;2022-11-15T12:05:16;19.48;;;5.25;;
9970;SDS011;5026;51.494;11.974;2022-11-15T12:07:46;11.48;;;3.92;;
9970;SDS011;5026;51.494;11.974;2022-11-15T12:10:18;18.88;;;4.80;;
9970;SDS011;5026;51.494;11.974;2022-11-15T12:12:50;10.85;;;3.80;;
9970;SDS011;5026;51.494;11.974;2022-11-15T12:15:20;20.02;;;4.82;;
9970;SDS011;5026;51.494;11.974;2022-11-15T12:17:48;11.52;;;4.00;;
9970;SDS011;5026;51.494;11.974;2022-11-15T12:20:17;17.92;;;4.88;;
9970;SDS011;5026;51.494;11.974;2022-11-15T12:22:49;15.23;;;4.07;;
9970;SDS011;5026;51.494;11.974;2022-11-15T12:25:20;20.15;;;5.53;;
9970;SDS011;5026;51.494;11.974;2022-11-15T12:27:49;7.90;;;3.33;;
9970;SDS011;5026;51.494;11.974;2022-11-15T12:30:18;18.27;;;5.25;;
9970;SDS011;5026;51.494;11.974;2022-11-15T12:32:49;11.82;;;4.20;;
9970;SDS011;5026;51.494;11.974;2022-11-15T12:35:21;15.95;;;4.55;;
9970;SDS011;5026;51.494;11.974;2022-11-15T12:37:51;12.40;;;3.83;;
9970;SDS011;5026;51.494;11.974;2022-11-15T12:40:24;15.25;;;4.57;;
9970;SDS011;5026;51.494;11.974;2022-11-15T12:45:40;9.63;;;3.63;;
9970;SDS011;5026;51.494;11.974;2022-11-15T12:50:52;9.02;;;3.33;;
9970;SDS011;5026;51.494;11.974;2022-11-15T12:53:27;19.92;;;5.28;;
9970;SDS011;5026;51.494;11.974;2022-11-15T12:58:41;9.70;;;3.53;;
9970;SDS011;5026;51.494;11.974;2022-11-15T13:01:10;11.25;;;3.47;;
9970;SDS011;5026;51.494;11.974;2022-11-15T13:04:08;9.25;;;3.35;;
9970;SDS011;5026;51.494;11.974;2022-11-15T13:06:39;8.88;;;3.15;;
9970;SDS011;5026;51.494;11.974;2022-11-15T13:12:09;9.70;;;3.55;;
9970;SDS011;5026;51.494;11.974;2022-11-15T13:14:39;9.43;;;3.03;;
9970;SDS011;5026;51.494;11.974;2022-11-15T13:17:24;8.80;;;3.25;;
9970;SDS011;5026;51.494;11.974;2022-11-15T13:19:53;9.73;;;2.85;;
9970;SDS011;5026;51.494;11.974;2022-11-15T13:22:24;11.45;;;3.30;;
9970;SDS011;5026;51.494;11.974;2022-11-15T13:25:15;10.55;;;3.08;;
9970;SDS011;5026;51.494;11.974;2022-11-15T13:27:46;9.48;;;3.25;;
9970;SDS011;5026;51.494;11.974;2022-11-15T13:30:16;18.20;;;4.35;;
9970;SDS011;5026;51.494;11.974;2022-11-15T13:32:45;13.20;;;3.10;;
9970;SDS011;5026;51.494;11.974;2022-11-15T13:35:17;14.88;;;3.88;;
9970;SDS011;5026;51.494;11.974;2022-11-15T13:37:45;11.18;;;3.15;;
9970;SDS011;5026;51.494;11.974;2022-11-15T13:40:18;18.00;;;4.95;;
9970;SDS011;5026;51.494;11.974;2022-11-15T13:42:47;14.30;;;3.67;;
9970;SDS011;5026;51.494;11.974;2022-11-15T13:45:16;19.95;;;4.80;;
9970;SDS011;5026;51.494;11.974;2022-11-15T13:47:43;10.52;;;3.42;;
9970;SDS011;5026;51.494;11.974;2022-11-15T13:50:11;11.82;;;3.53;;
9970;SDS011;5026;51.494;11.974;2022-11-15T13:52:39;9.35;;;2.97;;
9970;SDS011;5026;51.494;11.974;2022-11-15T13:55:09;11.73;;;3.45;;
9970;SDS011;5026;51.494;11.974;2022-11-15T13:57:39;12.95;;;3.65;;
9970;SDS011;5026;51.494;11.974;2022-11-15T14:00:25;11.27;;;3.75;;
9970;SDS011;5026;51.494;11.974;2022-11-15T14:02:52;14.35;;;4.03;;
9970;SDS011;5026;51.494;11.974;2022-11-15T14:05:20;18.50;;;4.90;;
9970;SDS011;5026;51.494;11.974;2022-11-15T14:07:55;13.05;;;4.07;;
9970;SDS011;5026;51.494;11.974;2022-11-15T14:10:27;21.25;;;5.03;;
9970;SDS011;5026;51.494;11.974;2022-11-15T14:12:54;17.20;;;4.40;;
9970;SDS011;5026;51.494;11.974;2022-11-15T14:15:27;19.67;;;5.30;;
9970;SDS011;5026;51.494;11.974;2022-11-15T14:17:55;15.02;;;4.15;;
9970;SDS011;5026;51.494;11.974;2022-11-15T14:20:29;21.85;;;5.75;;
9970;SDS011;5026;51.494;11.974;2022-11-15T14:22:58;13.82;;;4.68;;
9970;SDS011;5026;51.494;11.974;2022-11-15T14:25:26;25.42;;;6.05;;
9970;SDS011;5026;51.494;11.974;2022-11-15T14:28:10;16.13;;;4.57;;
9970;SDS011;5026;51.494;11.974;2022-11-15T14:30:39;15.90;;;4.43;;
9970;SDS011;5026;51.494;11.974;2022-11-15T14:33:17;12.13;;;3.90;;
9970;SDS011;5026;51.494;11.974;2022-11-15T14:35:45;11.73;;;4.00;;
9970;SDS011;5026;51.494;11.974;2022-11-15T14:38:12;20.02;;;5.20;;
9970;SDS011;5026;51.494;11.974;2022-11-15T14:40:40;11.73;;;4.22;;
9970;SDS011;5026;51.494;11.974;2022-11-15T14:43:07;14.00;;;4.28;;
9970;SDS011;5026;51.494;11.974;2022-11-15T14:45:35;13.23;;;4.50;;
9970;SDS011;5026;51.494;11.974;2022-11-15T14:48:03;14.02;;;4.50;;
9970;SDS011;5026;51.494;11.974;2022-11-15T14:50:31;12.75;;;3.90;;
9970;SDS011;5026;51.494;11.974;2022-11-15T14:52:59;11.07;;;4.05;;
9970;SDS011;5026;51.494;11.974;2022-11-15T14:55:27;16.60;;;5.07;;
9970;SDS011;5026;51.494;11.974;2022-11-15T14:57:56;12.43;;;4.57;;
9970;SDS011;5026;51.494;11.974;2022-11-15T15:00:23;19.50;;;5.07;;
9970;SDS011;5026;51.494;11.974;2022-11-15T15:02:51;14.95;;;4.22;;
9970;SDS011;5026;51.494;11.974;2022-11-15T15:05:21;29.40;;;5.88;;
9970;SDS011;5026;51.494;11.974;2022-11-15T15:07:48;16.80;;;5.07;;
9970;SDS011;5026;51.494;11.974;2022-11-15T15:10:16;19.80;;;5.20;;
9970;SDS011;5026;51.494;11.974;2022-11-15T15:12:43;20.17;;;5.63;;
9970;SDS011;5026;51.494;11.974;2022-11-15T15:15:12;16.05;;;4.82;;